createdAt,value
2019-02-06T00:02:13.453Z,48.40
2019-02-06T00:07:06.285Z,39.18
2019-02-06T00:09:32.825Z,41.18
2019-02-06T00:11:59.394Z,49.15
2019-02-06T00:14:25.956Z,45.25
2019-02-06T00:16:52.536Z,45.00
2019-02-06T00:19:19.364Z,41.48
2019-02-06T00:21:45.940Z,42.13
2019-02-06T00:24:12.493Z,45.75
2019-02-06T00:26:39.055Z,47.30
2019-02-06T00:29:05.600Z,47.95
2019-02-06T00:31:32.177Z,46.33
2019-02-06T00:34:06.306Z,45.73
2019-02-06T00:36:33.197Z,44.38
2019-02-06T00:38:59.743Z,40.80
2019-02-06T00:41:26.286Z,42.10
2019-02-06T00:43:52.849Z,42.25
2019-02-06T00:46:19.524Z,43.00
2019-02-06T00:48:46.063Z,43.58
2019-02-06T00:51:12.616Z,44.03
2019-02-06T00:53:39.181Z,44.40
2019-02-06T00:56:05.836Z,42.75
2019-02-06T00:58:32.408Z,50.55
2019-02-06T01:00:58.971Z,41.98
2019-02-06T01:03:25.542Z,42.33
2019-02-06T01:05:52.110Z,47.55
2019-02-06T01:08:18.683Z,46.15
2019-02-06T01:10:45.225Z,44.08
2019-02-06T01:13:11.787Z,44.25
2019-02-06T01:15:38.655Z,43.55
2019-02-06T01:18:05.220Z,43.75
2019-02-06T01:20:31.775Z,40.60
2019-02-06T01:22:58.347Z,41.28
2019-02-06T01:25:24.883Z,40.90
2019-02-06T01:27:51.448Z,42.08
2019-02-06T01:30:20.221Z,42.70
2019-02-06T01:32:46.819Z,40.90
2019-02-06T01:35:13.777Z,42.78
2019-02-06T01:37:40.352Z,42.33
2019-02-06T01:40:07.565Z,39.08
2019-02-06T01:42:34.132Z,41.88
2019-02-06T01:45:00.695Z,38.67
2019-02-06T01:47:27.261Z,42.70
2019-02-06T01:49:53.826Z,40.67
2019-02-06T01:52:20.443Z,39.15
2019-02-06T01:54:47.394Z,41.95
2019-02-06T01:57:13.968Z,40.23
2019-02-06T01:59:40.507Z,40.03
2019-02-06T02:02:07.046Z,40.98
2019-02-06T02:04:33.594Z,37.85
2019-02-06T02:07:00.149Z,38.73
2019-02-06T02:09:26.705Z,39.85
2019-02-06T02:11:53.255Z,38.67
2019-02-06T02:14:19.818Z,40.35
2019-02-06T02:16:46.660Z,37.00
2019-02-06T02:19:13.217Z,40.80
2019-02-06T02:21:39.762Z,39.20
2019-02-06T02:24:06.329Z,38.98
2019-02-06T02:26:32.871Z,39.88
2019-02-06T02:28:59.433Z,41.02
2019-02-06T02:31:26.206Z,40.23
2019-02-06T02:33:52.742Z,40.23
2019-02-06T02:36:19.277Z,39.60
2019-02-06T02:38:45.841Z,39.78
2019-02-06T02:41:12.388Z,40.63
2019-02-06T02:43:38.932Z,41.02
2019-02-06T02:46:05.503Z,41.40
2019-02-06T02:48:32.226Z,43.17
2019-02-06T02:50:58.738Z,42.27
2019-02-06T02:53:25.305Z,42.85
2019-02-06T02:55:51.862Z,41.95
2019-02-06T02:58:18.406Z,44.45
2019-02-06T03:01:13.680Z,46.63
2019-02-06T03:03:44.640Z,44.53
2019-02-06T03:06:11.386Z,42.03
2019-02-06T03:08:37.963Z,44.25
2019-02-06T03:11:04.500Z,43.85
2019-02-06T03:13:31.053Z,41.02
2019-02-06T03:15:57.627Z,50.12
2019-02-06T03:18:24.183Z,45.67
2019-02-06T03:20:50.746Z,46.13
2019-02-06T03:23:17.293Z,45.75
2019-02-06T03:25:44.065Z,43.80
2019-02-06T03:28:10.603Z,43.00
2019-02-06T03:30:37.192Z,41.53
2019-02-06T03:33:03.789Z,44.10
2019-02-06T03:35:30.327Z,41.23
2019-02-06T03:37:56.879Z,42.35
2019-02-06T03:40:23.451Z,42.78
2019-02-06T03:42:50.000Z,44.63
2019-02-06T03:45:16.881Z,45.05
2019-02-06T03:47:43.431Z,48.40
2019-02-06T03:50:12.067Z,43.17
2019-02-06T03:52:38.627Z,39.98
2019-02-06T03:55:05.924Z,37.48
2019-02-06T03:57:32.482Z,38.55
2019-02-06T03:59:59.055Z,38.63
2019-02-06T04:02:25.610Z,38.80
2019-02-06T04:04:52.484Z,34.45
2019-02-06T04:07:19.061Z,37.25
2019-02-06T04:09:45.608Z,34.43
2019-02-06T04:12:12.294Z,35.17
2019-02-06T04:14:38.949Z,34.55
2019-02-06T04:17:05.515Z,34.55
2019-02-06T04:19:32.086Z,37.55
2019-02-06T04:21:58.634Z,36.60
2019-02-06T04:24:25.515Z,36.77
2019-02-06T04:26:52.048Z,36.75
2019-02-06T04:29:18.693Z,33.55
2019-02-06T04:31:45.282Z,37.17
2019-02-06T04:34:11.825Z,36.48
2019-02-06T04:36:38.414Z,38.30
2019-02-06T04:39:07.021Z,43.17
2019-02-06T04:41:33.591Z,39.98
2019-02-06T04:44:00.136Z,39.55
2019-02-06T04:46:26.699Z,36.63
2019-02-06T04:48:53.250Z,39.27
2019-02-06T04:51:19.807Z,40.75
2019-02-06T04:53:46.361Z,37.25
2019-02-06T04:56:12.943Z,37.38
2019-02-06T04:58:39.494Z,38.25
2019-02-06T05:01:06.075Z,39.25
2019-02-06T05:03:32.920Z,37.93
2019-02-06T05:05:59.491Z,36.85
2019-02-06T05:08:26.037Z,36.00
2019-02-06T05:10:52.607Z,34.80
2019-02-06T05:13:19.177Z,34.48
2019-02-06T05:15:45.766Z,31.85
2019-02-06T05:18:12.314Z,34.43
2019-02-06T05:20:40.226Z,30.32
2019-02-06T05:23:08.017Z,35.20
2019-02-06T05:25:34.581Z,32.73
2019-02-06T05:28:01.154Z,32.20
2019-02-06T05:30:27.701Z,26.20
2019-02-06T05:32:54.268Z,26.70
2019-02-06T05:35:20.808Z,26.90
2019-02-06T05:37:47.380Z,25.85
2019-02-06T05:40:13.958Z,24.98
2019-02-06T05:42:40.826Z,25.15
2019-02-06T05:45:07.373Z,25.23
2019-02-06T05:47:33.949Z,25.48
2019-02-06T05:50:00.508Z,25.35
2019-02-06T05:52:27.082Z,25.90
2019-02-06T05:54:53.643Z,24.25
2019-02-06T05:57:20.228Z,24.87
2019-02-06T05:59:46.772Z,23.90
2019-02-06T06:02:13.341Z,21.42
2019-02-06T06:04:40.289Z,22.42
2019-02-06T06:07:06.876Z,23.67
2019-02-06T06:09:33.436Z,24.27
2019-02-06T06:12:00.116Z,24.52
2019-02-06T06:14:26.689Z,25.45
2019-02-06T06:16:53.250Z,23.25
2019-02-06T06:19:19.797Z,23.77
2019-02-06T06:21:46.557Z,22.25
2019-02-06T06:24:13.191Z,21.00
2019-02-06T06:26:39.774Z,23.10
2019-02-06T06:29:06.334Z,20.27
2019-02-06T06:31:32.874Z,21.68
2019-02-06T06:33:59.442Z,22.70
2019-02-06T06:36:26.001Z,21.17
2019-02-06T06:38:52.582Z,22.82
2019-02-06T06:41:19.132Z,21.35
2019-02-06T06:43:45.717Z,21.20
2019-02-06T06:46:12.471Z,21.70
2019-02-06T06:48:39.063Z,21.17
2019-02-06T06:51:05.635Z,21.23
2019-02-06T06:53:32.183Z,20.25
2019-02-06T06:55:58.758Z,20.08
2019-02-06T06:58:25.319Z,21.65
2019-02-06T07:00:51.895Z,20.77
2019-02-06T07:03:18.475Z,21.30
2019-02-06T07:05:45.353Z,20.12
2019-02-06T07:08:13.519Z,21.15
2019-02-06T07:10:40.378Z,19.42
2019-02-06T07:13:06.951Z,19.98
2019-02-06T07:15:33.806Z,20.17
2019-02-06T07:18:00.383Z,21.15
2019-02-06T07:20:26.939Z,21.20
2019-02-06T07:22:53.517Z,19.32
2019-02-06T07:25:21.970Z,20.27
2019-02-06T07:27:48.540Z,20.72
2019-02-06T07:30:23.188Z,19.42
2019-02-06T07:32:49.759Z,20.72
2019-02-06T07:35:16.305Z,18.87
2019-02-06T07:37:42.860Z,20.55
2019-02-06T07:40:09.473Z,19.65
2019-02-06T07:42:36.422Z,19.85
2019-02-06T07:45:04.428Z,19.32
2019-02-06T07:47:30.984Z,20.23
2019-02-06T07:49:57.559Z,21.05
2019-02-06T07:52:24.104Z,20.75
2019-02-06T07:54:50.666Z,20.85
2019-02-06T07:57:17.300Z,20.02
2019-02-06T07:59:43.860Z,19.37
2019-02-06T08:02:10.715Z,17.65
2019-02-06T08:04:37.421Z,19.73
2019-02-06T08:07:03.994Z,18.60
2019-02-06T08:09:30.546Z,19.23
2019-02-06T08:11:57.122Z,20.23
2019-02-06T08:14:23.678Z,20.05
2019-02-06T08:16:50.263Z,19.62
2019-02-06T08:19:16.820Z,20.82
2019-02-06T08:21:43.788Z,20.10
2019-02-06T08:24:10.351Z,19.35
2019-02-06T08:26:36.975Z,19.60
2019-02-06T08:29:04.229Z,19.50
2019-02-06T08:31:30.803Z,18.32
2019-02-06T08:33:57.359Z,16.87
2019-02-06T08:36:23.919Z,20.08
2019-02-06T08:38:50.483Z,17.85
2019-02-06T08:41:17.326Z,20.20
2019-02-06T08:43:43.877Z,18.12
2019-02-06T08:46:10.439Z,16.57
2019-02-06T08:48:36.984Z,17.50
2019-02-06T08:51:03.555Z,19.48
2019-02-06T08:53:30.128Z,18.90
2019-02-06T08:55:56.677Z,17.30
2019-02-06T08:58:23.253Z,17.25
2019-02-06T09:00:50.110Z,17.85
2019-02-06T09:03:16.651Z,18.52
2019-02-06T09:05:43.264Z,17.52
2019-02-06T09:08:09.838Z,17.90
2019-02-06T09:10:36.385Z,16.85
2019-02-06T09:13:03.306Z,17.42
2019-02-06T09:15:29.860Z,16.02
2019-02-06T09:17:56.441Z,18.55
2019-02-06T09:20:23.807Z,17.37
2019-02-06T09:22:50.414Z,17.90
2019-02-06T09:25:18.023Z,17.12
2019-02-06T09:27:44.598Z,17.42
2019-02-06T09:30:13.125Z,16.55
2019-02-06T09:32:39.697Z,16.42
2019-02-06T09:35:06.288Z,16.85
2019-02-06T09:37:32.861Z,17.98
2019-02-06T09:39:59.708Z,17.50
2019-02-06T09:42:26.282Z,17.40
2019-02-06T09:44:52.847Z,17.02
2019-02-06T09:47:19.420Z,17.52
2019-02-06T09:49:45.983Z,17.92
2019-02-06T09:52:12.548Z,17.02
2019-02-06T09:54:39.094Z,16.12
2019-02-06T09:57:05.676Z,15.98
2019-02-06T09:59:32.621Z,17.62
2019-02-06T10:01:59.201Z,16.37
2019-02-06T10:04:25.759Z,16.37
2019-02-06T10:06:54.486Z,19.17
2019-02-06T10:09:23.185Z,18.60
2019-02-06T10:11:50.228Z,16.70
2019-02-06T10:14:16.791Z,17.35
2019-02-06T10:16:43.337Z,16.93
2019-02-06T10:19:11.783Z,16.90
2019-02-06T10:21:38.330Z,14.00
2019-02-06T10:24:04.881Z,19.87
2019-02-06T10:26:31.427Z,18.80
2019-02-06T10:28:57.986Z,16.25
2019-02-06T10:31:24.525Z,16.57
2019-02-06T10:33:51.092Z,16.62
2019-02-06T10:36:17.631Z,16.97
2019-02-06T10:38:44.398Z,16.02
2019-02-06T10:41:10.950Z,16.80
2019-02-06T10:43:37.514Z,16.17
2019-02-06T10:46:04.073Z,16.60
2019-02-06T10:48:30.648Z,15.32
2019-02-06T10:50:58.422Z,17.12
2019-02-06T10:53:25.232Z,16.90
2019-02-06T10:55:51.941Z,16.02
2019-02-06T10:58:18.777Z,16.35
2019-02-06T11:00:55.975Z,17.02
2019-02-06T11:03:22.548Z,19.10
2019-02-06T11:05:49.214Z,20.25
2019-02-06T11:08:15.775Z,19.87
2019-02-06T11:10:42.314Z,18.02
2019-02-06T11:13:08.891Z,16.45
2019-02-06T11:15:35.747Z,16.73
2019-02-06T11:18:02.291Z,16.87
2019-02-06T11:20:31.033Z,17.07
2019-02-06T11:22:57.588Z,16.65
2019-02-06T11:25:24.180Z,15.93
2019-02-06T11:27:50.770Z,13.88
2019-02-06T11:30:20.172Z,17.30
2019-02-06T11:32:47.122Z,16.40
2019-02-06T11:35:13.693Z,15.60
2019-02-06T11:37:40.230Z,17.35
2019-02-06T11:40:10.006Z,15.95
2019-02-06T11:42:36.565Z,17.83
2019-02-06T11:45:03.701Z,17.07
2019-02-06T11:47:30.247Z,15.95
2019-02-06T11:49:58.764Z,16.50
2019-02-06T11:52:25.304Z,16.07
2019-02-06T11:54:51.853Z,16.37
2019-02-06T11:57:18.404Z,15.98
2019-02-06T11:59:44.961Z,15.55
2019-02-06T12:02:12.549Z,16.48
2019-02-06T12:04:39.074Z,16.87
2019-02-06T12:07:05.761Z,15.55
2019-02-06T12:09:32.317Z,15.60
2019-02-06T12:11:58.890Z,16.02
2019-02-06T12:14:25.466Z,16.60
2019-02-06T12:16:52.009Z,17.87
2019-02-06T12:19:18.585Z,16.57
2019-02-06T12:21:45.254Z,15.25
2019-02-06T12:24:11.764Z,14.65
2019-02-06T12:26:38.296Z,14.38
2019-02-06T12:29:04.852Z,15.98
2019-02-06T12:31:31.729Z,15.78
2019-02-06T12:33:58.284Z,14.85
2019-02-06T12:36:24.849Z,14.98
2019-02-06T12:38:53.817Z,16.75
2019-02-06T12:41:20.311Z,14.25
2019-02-06T12:43:46.872Z,15.55
2019-02-06T12:46:13.431Z,16.40
2019-02-06T12:48:39.968Z,16.42
2019-02-06T12:51:06.527Z,15.38
2019-02-06T12:53:33.069Z,16.37
2019-02-06T12:55:59.893Z,14.75
2019-02-06T12:58:26.510Z,15.60
2019-02-06T13:00:53.109Z,15.53
2019-02-06T13:03:19.748Z,14.58
2019-02-06T13:05:46.320Z,14.90
2019-02-06T13:08:12.854Z,15.23
2019-02-06T13:10:39.416Z,14.87
2019-02-06T13:13:05.970Z,15.93
2019-02-06T13:15:32.978Z,15.72
2019-02-06T13:17:59.513Z,17.10
2019-02-06T13:20:27.441Z,16.02
2019-02-06T13:22:53.999Z,16.42
2019-02-06T13:25:20.559Z,15.45
2019-02-06T13:27:47.112Z,16.07
2019-02-06T13:30:19.301Z,15.23
2019-02-06T13:32:46.182Z,16.12
2019-02-06T13:35:13.622Z,15.90
2019-02-06T13:37:40.183Z,15.85
2019-02-06T13:40:09.852Z,15.28
2019-02-06T13:42:36.416Z,14.85
2019-02-06T13:45:05.078Z,16.15
2019-02-06T13:47:31.643Z,15.58
2019-02-06T13:49:58.199Z,16.15
2019-02-06T13:52:24.734Z,15.28
2019-02-06T13:54:51.293Z,15.45
2019-02-06T13:57:17.857Z,14.65
2019-02-06T13:59:44.399Z,15.15
2019-02-06T14:02:10.946Z,13.35
2019-02-06T14:04:37.507Z,14.93
2019-02-06T14:07:04.094Z,14.68
2019-02-06T14:09:30.639Z,15.93
2019-02-06T14:11:57.194Z,16.75
2019-02-06T14:14:26.757Z,14.30
2019-02-06T14:16:53.000Z,16.85
2019-02-06T14:19:19.566Z,14.13
2019-02-06T14:21:46.097Z,14.87
2019-02-06T14:24:44.744Z,15.23
2019-02-06T14:27:42.774Z,14.95
2019-02-06T14:31:00.553Z,17.07
2019-02-06T14:33:38.229Z,16.20
2019-02-06T14:36:54.493Z,15.58
2019-02-06T14:39:53.623Z,17.27
2019-02-06T14:42:52.149Z,15.65
2019-02-06T14:45:59.589Z,15.98
2019-02-06T14:48:45.359Z,13.85
2019-02-06T14:51:37.102Z,14.63
2019-02-06T14:54:32.758Z,14.83
2019-02-06T14:57:27.784Z,14.05
2019-02-06T15:00:21.766Z,14.85
2019-02-06T15:03:41.141Z,13.68
2019-02-06T15:06:28.003Z,13.80
2019-02-06T15:09:22.109Z,14.58
2019-02-06T15:11:57.422Z,14.90
2019-02-06T15:14:34.840Z,13.65
2019-02-06T15:17:55.889Z,14.05
2019-02-06T15:23:43.979Z,12.20
2019-02-06T15:26:42.328Z,12.40
2019-02-06T15:29:53.697Z,12.03
2019-02-06T15:32:28.721Z,13.18
2019-02-06T15:35:27.719Z,13.38
2019-02-06T15:38:23.340Z,12.43
2019-02-06T15:41:31.791Z,13.35
2019-02-06T15:44:04.033Z,14.95
2019-02-06T15:47:27.864Z,14.53
2019-02-06T15:50:26.522Z,13.55
2019-02-06T15:53:03.984Z,14.40
2019-02-06T15:56:10.470Z,15.03
2019-02-06T15:59:19.092Z,14.15
2019-02-06T16:02:14.285Z,15.15
2019-02-06T16:05:35.187Z,13.90
2019-02-06T16:08:42.330Z,13.88
2019-02-06T16:11:42.048Z,14.68
2019-02-06T16:14:35.584Z,15.08
2019-02-06T16:17:42.147Z,15.72
2019-02-06T16:20:35.805Z,14.53
2019-02-06T16:23:44.193Z,15.60
2019-02-06T16:26:30.044Z,14.98
2019-02-06T16:29:10.111Z,14.38
2019-02-06T16:31:57.611Z,15.08
2019-02-06T16:35:15.235Z,14.13
2019-02-06T16:37:59.556Z,14.63
2019-02-06T16:40:40.090Z,14.38
2019-02-06T16:43:57.195Z,14.93
2019-02-06T16:46:57.644Z,14.00
2019-02-06T16:50:04.423Z,15.10
2019-02-06T16:53:31.267Z,16.62
2019-02-06T16:56:42.923Z,14.75
2019-02-06T16:59:37.017Z,15.13
2019-02-06T17:02:33.568Z,15.10
2019-02-06T17:05:31.873Z,16.20
2019-02-06T17:08:52.335Z,16.07
2019-02-06T17:12:06.942Z,16.37
2019-02-06T17:15:08.243Z,15.10
2019-02-06T17:18:19.086Z,13.53
2019-02-06T17:20:58.208Z,15.72
2019-02-06T17:23:47.876Z,16.12
2019-02-06T17:26:42.164Z,14.60
2019-02-06T17:29:56.538Z,16.15
2019-02-06T17:33:04.957Z,15.48
2019-02-06T17:35:56.256Z,16.42
2019-02-06T17:39:23.805Z,15.58
2019-02-06T17:42:22.013Z,14.90
2019-02-06T17:45:32.595Z,17.10
2019-02-06T17:48:21.829Z,16.87
2019-02-06T17:51:08.313Z,17.37
2019-02-06T17:54:16.135Z,15.98
2019-02-06T17:56:42.702Z,17.80
2019-02-06T17:59:09.335Z,18.07
2019-02-06T18:01:41.387Z,16.37
2019-02-06T18:04:10.571Z,18.52
2019-02-06T18:06:37.171Z,16.40
2019-02-06T18:09:08.564Z,16.77
2019-02-06T18:11:35.120Z,16.95
2019-02-06T18:14:01.660Z,18.00
2019-02-06T18:16:28.232Z,19.62
2019-02-06T18:18:54.788Z,18.00
2019-02-06T18:21:21.360Z,26.95
2019-02-06T18:23:47.897Z,23.55
2019-02-06T18:26:14.462Z,21.73
2019-02-06T18:28:40.988Z,24.30
2019-02-06T18:31:07.857Z,18.27
2019-02-06T18:33:34.396Z,18.50
2019-02-06T18:36:00.951Z,17.42
2019-02-06T18:38:27.561Z,16.42
2019-02-06T18:40:54.115Z,18.45
2019-02-06T18:43:21.693Z,17.85
2019-02-06T18:45:48.259Z,20.37
2019-02-06T18:48:14.836Z,16.73
2019-02-06T18:50:41.402Z,17.37
2019-02-06T18:53:07.999Z,16.93
2019-02-06T18:55:34.844Z,18.67
2019-02-06T18:58:01.438Z,18.15
2019-02-06T19:00:32.234Z,17.57
2019-02-06T19:02:58.862Z,18.90
2019-02-06T19:05:28.649Z,16.07
2019-02-06T19:07:55.251Z,16.53
2019-02-06T19:10:22.901Z,17.50
2019-02-06T19:12:50.795Z,20.05
2019-02-06T19:15:17.528Z,19.17
2019-02-06T19:17:44.557Z,18.25
2019-02-06T19:20:11.422Z,17.70
2019-02-06T19:22:37.980Z,17.73
2019-02-06T19:25:05.132Z,19.67
2019-02-06T19:27:31.700Z,19.15
2019-02-06T19:29:58.247Z,17.37
2019-02-06T19:32:24.802Z,17.67
2019-02-06T19:34:51.364Z,18.00
2019-02-06T19:37:18.088Z,17.23
2019-02-06T19:39:44.644Z,18.10
2019-02-06T19:42:11.551Z,18.40
2019-02-06T19:44:38.102Z,18.57
2019-02-06T19:47:04.656Z,17.77
2019-02-06T19:49:31.231Z,18.98
2019-02-06T19:51:57.768Z,19.27
2019-02-06T19:54:24.344Z,17.52
2019-02-06T19:56:50.887Z,16.67
2019-02-06T19:59:17.464Z,18.40
2019-02-06T20:01:44.122Z,18.90
2019-02-06T20:04:10.896Z,18.20
2019-02-06T20:06:37.462Z,18.37
2019-02-06T20:09:08.557Z,19.73
2019-02-06T20:11:35.109Z,18.77
2019-02-06T20:14:01.686Z,16.42
2019-02-06T20:16:28.231Z,19.48
2019-02-06T20:18:54.805Z,19.70
2019-02-06T20:21:21.349Z,19.45
2019-02-06T20:23:48.022Z,17.57
2019-02-06T20:26:14.873Z,20.48
2019-02-06T20:28:41.449Z,42.70
2019-02-06T20:31:07.992Z,34.50
2019-02-06T20:33:34.567Z,24.25
2019-02-06T20:36:01.118Z,22.82
2019-02-06T20:38:27.996Z,21.77
2019-02-06T20:40:54.539Z,21.97
2019-02-06T20:43:22.336Z,21.40
2019-02-06T20:45:49.055Z,20.02
2019-02-06T20:48:15.634Z,21.57
2019-02-06T20:50:42.481Z,20.23
2019-02-06T20:53:09.032Z,20.45
2019-02-06T20:55:35.964Z,18.57
2019-02-06T20:58:02.549Z,19.70
2019-02-06T21:00:31.144Z,21.12
2019-02-06T21:02:57.696Z,20.43
2019-02-06T21:05:24.272Z,20.77
2019-02-06T21:07:50.845Z,21.55
2019-02-06T21:10:19.562Z,21.57
2019-02-06T21:12:46.123Z,20.60
2019-02-06T21:15:12.826Z,22.07
2019-02-06T21:17:39.377Z,19.02
2019-02-06T21:20:08.572Z,19.75
2019-02-06T21:22:35.127Z,19.82
2019-02-06T21:25:01.700Z,21.70
2019-02-06T21:27:28.249Z,19.95
2019-02-06T21:29:55.428Z,20.25
2019-02-06T21:32:22.019Z,20.57
2019-02-06T21:34:48.590Z,20.57
2019-02-06T21:37:15.141Z,20.12
2019-02-06T21:39:41.721Z,19.57
2019-02-06T21:42:08.261Z,19.65
2019-02-06T21:44:34.831Z,21.20
2019-02-06T21:47:01.377Z,19.55
2019-02-06T21:49:28.248Z,20.57
2019-02-06T21:51:54.795Z,19.85
2019-02-06T21:54:21.364Z,21.40
2019-02-06T21:56:47.926Z,21.10
2019-02-06T21:59:14.490Z,21.52
2019-02-06T22:01:41.036Z,21.12
2019-02-06T22:04:07.635Z,20.02
2019-02-06T22:06:34.208Z,20.55
2019-02-06T22:09:00.775Z,20.35
2019-02-06T22:11:27.343Z,20.60
2019-02-06T22:13:55.444Z,21.57
2019-02-06T22:16:22.198Z,21.30
2019-02-06T22:18:48.775Z,19.82
2019-02-06T22:21:15.345Z,20.88
2019-02-06T22:23:41.886Z,22.02
2019-02-06T22:26:08.856Z,21.50
2019-02-06T22:28:35.403Z,21.35
2019-02-06T22:31:02.027Z,21.37
2019-02-06T22:33:28.577Z,21.97
2019-02-06T22:35:55.143Z,21.82
2019-02-06T22:38:21.689Z,21.60
2019-02-06T22:40:48.264Z,20.45
2019-02-06T22:43:14.809Z,21.68
2019-02-06T22:45:41.785Z,22.70
2019-02-06T22:48:08.338Z,22.70
2019-02-06T22:50:34.913Z,22.77
2019-02-06T22:53:01.465Z,22.15
2019-02-06T22:55:28.061Z,22.22
2019-02-06T22:57:54.622Z,22.22
2019-02-06T23:00:51.939Z,21.85
2019-02-06T23:03:30.402Z,23.67
2019-02-06T23:05:56.966Z,21.68
2019-02-06T23:08:23.528Z,22.67
2019-02-06T23:10:50.098Z,21.95
2019-02-06T23:13:17.051Z,21.23
2019-02-06T23:15:43.627Z,22.42
2019-02-06T23:18:10.172Z,21.90
2019-02-06T23:20:36.748Z,22.90
2019-02-06T23:23:03.297Z,22.35
2019-02-06T23:25:29.860Z,21.27
2019-02-06T23:27:56.408Z,21.60
2019-02-06T23:30:22.972Z,21.60
2019-02-06T23:32:49.525Z,21.27
2019-02-06T23:35:16.092Z,22.70
2019-02-06T23:37:42.640Z,19.32
2019-02-06T23:40:09.362Z,20.77
2019-02-06T23:42:35.939Z,20.48
2019-02-06T23:45:03.172Z,22.05
2019-02-06T23:47:29.741Z,22.73
2019-02-06T23:49:56.698Z,21.80
2019-02-06T23:52:23.257Z,21.77
2019-02-06T23:54:49.806Z,21.77
2019-02-06T23:57:16.373Z,20.97
2019-02-06T23:59:42.915Z,21.73
